Boulder, UT (84716)

5:33 PM MST on February 06, 2016 (GMT -0700)
Black Boulder Mesa | | Change Station
CLOSE
Current Station
Personal Weather Station
Location: Boulder, UT
Elevation: 6673 ft
Nearby Weather Stations

Elev 6673 ft 37.91 °N, 111.40 °W | Updated 6 minutes ago

Clear
Clear
31.2 °F
Feels Like 31 °F
N
0.0
Wind Variable Wind from South

Today
High -- | Low -- °F
--% Chance of Precip.
Yesterday
High -- | Low -- °F
Precip. -- in
Pressure 30.52 in
Visibility 10.0 miles
Clouds Clear
Windchill 31 °F
Dew Point 19 °F
Humidity 62%
Rainfall 0.02 in
Snow Depth Not available.
7:24 AM 5:53 PM
Waning Crescent, 3% visible
METAR KBCE 062353Z AUTO 00000KT 10SM CLR M02/M10 A3041 RMK AO2 SLP334 T10221100 10028 21078 56005
Pressure 30.52 in
Visibility 10.0 miles
Clouds Clear
Windchill 31 °F
Dew Point 19 °F
Humidity 62%
Rainfall 0.02 in
Snow Depth Not available.
7:24 AM 5:53 PM
Waning Crescent, 3% visible
METAR KBCE 062353Z AUTO 00000KT 10SM CLR M02/M10 A3041 RMK AO2 SLP334 T10221100 10028 21078 56005

10-Day Weather Forecast

Almanac

Astronomy

Feb. 06, 2016 Rise Set
Actual Time
Civil Twilight
Nautical Twilight
Astronomical Twilight
Moon
Length of Visible Light
Length of Day
Tomorrow will be .
, % of the Moon is Illuminated

Today's Extremes

State Highs State Lows

Community

WunderPhotos

Upload Photos

1,891,108 photos uploaded!

WunderBlog® & News

Nearby

Air Quality

  Air Quality AQ Index Pollutant
Not available.

Snow Depth

Station Depth Elevation

Earthquake Activity

City Distance Mag. Time & Date
Minimum magnitude displayed is 2.5.

Coastal Water Temperatures

Place Temperature

Stations

Nearby Weather Stations

Station Location Temp. Windchill Dew Point Humidity Wind Precip. Elev Updated Type
                   

Watches & Warnings

There are currently no watches in effect.